createdAt,value
2023-04-10T00:02:03.941Z,64.51
2023-04-10T00:04:31.972Z,63.55
2023-04-10T00:07:01.384Z,63.19
2023-04-10T00:09:29.746Z,64.28
2023-04-10T00:11:57.784Z,64.53
2023-04-10T00:14:25.695Z,63.64
2023-04-10T00:16:53.715Z,63.85
2023-04-10T00:19:21.637Z,63.97
2023-04-10T00:21:49.565Z,64.24
2023-04-10T00:24:18.835Z,64.19
2023-04-10T00:26:46.719Z,63.77
2023-04-10T00:29:14.669Z,64.30
2023-04-10T00:31:42.648Z,64.77
2023-04-10T00:34:10.718Z,64.50
2023-04-10T00:36:38.730Z,64.96
2023-04-10T00:39:07.417Z,64.64
2023-04-10T00:41:36.681Z,65.73
2023-04-10T00:44:04.637Z,64.74
2023-04-10T00:46:35.388Z,64.67
2023-04-10T00:49:03.675Z,65.02
2023-04-10T00:51:32.390Z,65.22
2023-04-10T00:54:02.393Z,65.35
2023-04-10T00:56:32.646Z,64.74
2023-04-10T00:59:04.058Z,65.29
2023-04-10T01:01:33.280Z,65.39
2023-04-10T01:04:01.488Z,66.17
2023-04-10T01:06:43.633Z,65.57
2023-04-10T01:09:18.991Z,65.14
2023-04-10T01:11:56.511Z,65.02
2023-04-10T01:14:32.084Z,66.19
2023-04-10T01:17:06.409Z,66.65
2023-04-10T01:20:00.260Z,66.77
2023-04-10T01:22:34.260Z,65.73
2023-04-10T01:25:16.356Z,65.71
2023-04-10T01:27:54.279Z,66.54
2023-04-10T01:30:24.386Z,66.03
2023-04-10T01:32:56.416Z,66.28
2023-04-10T01:35:25.541Z,65.41
2023-04-10T01:37:54.804Z,65.60
2023-04-10T01:40:24.394Z,65.88
2023-04-10T01:42:56.401Z,66.84
2023-04-10T01:45:33.755Z,67.04
2023-04-10T01:48:02.228Z,66.06
2023-04-10T01:50:30.921Z,65.70
2023-04-10T01:53:00.584Z,65.92
2023-04-10T01:55:29.241Z,65.90
2023-04-10T01:58:04.815Z,67.03
2023-04-10T02:00:39.227Z,66.30
2023-04-10T02:03:07.454Z,66.80
2023-04-10T02:05:42.466Z,65.92
2023-04-10T02:08:16.680Z,66.63
2023-04-10T02:10:53.804Z,66.54
2023-04-10T02:13:23.372Z,66.23
2023-04-10T02:15:57.192Z,66.35
2023-04-10T02:18:26.603Z,65.94
2023-04-10T02:20:55.870Z,67.05
2023-04-10T02:23:24.647Z,66.39
2023-04-10T02:25:52.657Z,66.62
2023-04-10T02:28:20.905Z,66.73
2023-04-10T02:30:48.869Z,66.95
2023-04-10T02:33:18.227Z,66.59
2023-04-10T02:35:46.152Z,67.14
2023-04-10T02:38:15.542Z,66.98
2023-04-10T02:40:44.762Z,67.62
2023-04-10T02:43:14.750Z,67.54
2023-04-10T02:45:43.859Z,67.09
2023-04-10T02:48:15.087Z,67.25
2023-04-10T02:50:46.643Z,68.40
2023-04-10T02:53:15.610Z,67.56
2023-04-10T02:55:43.646Z,67.59
2023-04-10T02:58:13.832Z,68.57
2023-04-10T03:00:42.868Z,67.76
2023-04-10T03:03:31.075Z,67.50
2023-04-10T03:06:00.531Z,67.34
2023-04-10T03:08:32.478Z,67.42
2023-04-10T03:11:00.402Z,68.21
2023-04-10T03:13:29.546Z,67.40
2023-04-10T03:15:57.682Z,67.62
2023-04-10T03:18:25.681Z,67.62
2023-04-10T03:20:55.673Z,67.80
2023-04-10T03:23:26.215Z,68.31
2023-04-10T03:25:54.930Z,67.87
2023-04-10T03:28:27.878Z,68.37
2023-04-10T03:30:55.818Z,67.21
2023-04-10T03:33:24.327Z,67.62
2023-04-10T03:35:53.685Z,68.17
2023-04-10T03:38:21.653Z,67.92
2023-04-10T03:40:51.258Z,68.36
2023-04-10T03:43:21.211Z,68.26
2023-04-10T03:45:49.553Z,68.50
2023-04-10T03:48:17.975Z,68.06
2023-04-10T03:50:48.029Z,67.80
2023-04-10T03:53:17.224Z,68.26
2023-04-10T03:55:46.170Z,68.25
2023-04-10T03:58:15.706Z,68.35
2023-04-10T04:00:43.723Z,68.26
2023-04-10T04:03:20.381Z,68.57
2023-04-10T04:06:00.500Z,68.33
2023-04-10T04:08:48.650Z,69.15
2023-04-10T04:11:36.549Z,68.16
2023-04-10T04:14:10.644Z,67.96
2023-04-10T04:16:57.762Z,68.48
2023-04-10T04:19:44.239Z,68.57
2023-04-10T04:22:19.817Z,69.12
2023-04-10T04:25:11.552Z,68.86
2023-04-10T04:27:58.284Z,68.88
2023-04-10T04:30:41.685Z,68.88
2023-04-10T04:33:19.591Z,68.72
2023-04-10T04:36:10.456Z,69.07
2023-04-10T04:39:07.624Z,69.46
2023-04-10T04:41:41.265Z,69.16
2023-04-10T04:44:15.013Z,69.46
2023-04-10T04:47:07.436Z,69.26
2023-04-10T04:49:52.424Z,69.57
2023-04-10T04:52:23.722Z,69.08
2023-04-10T04:55:08.629Z,68.90
2023-04-10T04:58:06.167Z,69.47
2023-04-10T05:00:48.627Z,69.38
2023-04-10T05:03:33.248Z,68.94
2023-04-10T05:06:22.162Z,69.01
2023-04-10T05:09:19.552Z,69.38
2023-04-10T05:12:06.465Z,69.28
2023-04-10T05:14:52.986Z,69.84
2023-04-10T05:17:37.145Z,69.46
2023-04-10T05:20:16.314Z,69.42
2023-04-10T05:23:03.168Z,69.79
2023-04-10T05:25:50.730Z,69.67
2023-04-10T05:28:32.885Z,70.08
2023-04-10T05:31:19.526Z,69.70
2023-04-10T05:33:56.018Z,70.19
2023-04-10T05:36:36.769Z,69.72
2023-04-10T05:39:09.967Z,70.11
2023-04-10T05:41:56.341Z,70.61
2023-04-10T05:44:32.060Z,71.74
2023-04-10T05:47:30.138Z,72.28
2023-04-10T05:50:17.232Z,72.83
2023-04-10T05:53:01.047Z,72.11
2023-04-10T05:55:44.990Z,71.51
2023-04-10T05:58:33.172Z,71.22
2023-04-10T06:01:14.777Z,71.25
2023-04-10T06:03:45.637Z,71.22
2023-04-10T06:06:14.688Z,70.45
2023-04-10T06:08:44.108Z,70.37
2023-04-10T06:11:12.132Z,70.87
2023-04-10T06:13:42.676Z,70.44
2023-04-10T06:16:11.335Z,70.74
2023-04-10T06:18:39.974Z,71.34
2023-04-10T06:21:08.663Z,71.55
2023-04-10T06:23:37.310Z,71.09
2023-04-10T06:26:06.994Z,71.73
2023-04-10T06:28:34.989Z,72.12
2023-04-10T06:31:04.887Z,71.92
2023-04-10T06:33:36.957Z,72.58
2023-04-10T06:36:08.585Z,72.85
2023-04-10T06:38:42.803Z,73.04
2023-04-10T06:41:12.101Z,72.75
2023-04-10T06:43:40.669Z,72.42
2023-04-10T06:46:08.780Z,71.42
2023-04-10T06:48:36.710Z,72.04
2023-04-10T06:51:05.030Z,71.49
2023-04-10T06:53:32.969Z,71.92
2023-04-10T06:56:03.072Z,70.85
2023-04-10T06:58:33.017Z,70.86
2023-04-10T07:01:04.560Z,69.57
2023-04-10T07:03:33.855Z,68.60
2023-04-10T07:06:03.311Z,68.95
2023-04-10T07:08:31.440Z,68.99
2023-04-10T07:10:59.345Z,67.66
2023-04-10T07:13:27.246Z,68.01
2023-04-10T07:15:56.616Z,67.38
2023-04-10T07:18:24.510Z,67.16
2023-04-10T07:20:52.731Z,67.39
2023-04-10T07:23:20.719Z,67.24
2023-04-10T07:25:48.575Z,67.03
2023-04-10T07:28:16.449Z,66.90
2023-04-10T07:30:44.327Z,65.66
2023-04-10T07:33:13.772Z,65.71
2023-04-10T07:35:41.911Z,65.84
2023-04-10T07:38:09.910Z,65.10
2023-04-10T07:40:37.802Z,64.45
2023-04-10T07:43:05.776Z,64.66
2023-04-10T07:45:34.044Z,65.02
2023-04-10T07:48:02.779Z,65.11
2023-04-10T07:50:32.097Z,64.95
2023-04-10T07:53:03.584Z,64.60
2023-04-10T07:55:31.505Z,64.42
2023-04-10T07:57:59.420Z,63.74
2023-04-10T08:00:27.349Z,63.76
2023-04-10T08:02:55.827Z,63.26
2023-04-10T08:05:23.962Z,63.40
2023-04-10T08:07:53.338Z,63.06
2023-04-10T08:10:21.495Z,62.55
2023-04-10T08:12:49.501Z,63.13
2023-04-10T08:15:18.627Z,64.39
2023-04-10T08:17:46.647Z,64.34
2023-04-10T08:20:15.400Z,64.08
2023-04-10T08:22:43.356Z,63.76
2023-04-10T08:25:12.813Z,63.45
2023-04-10T08:27:40.788Z,63.16
2023-04-10T08:30:09.665Z,62.52
2023-04-10T08:32:37.704Z,61.84
2023-04-10T08:35:06.592Z,61.48
2023-04-10T08:37:34.447Z,61.41
2023-04-10T08:40:02.334Z,61.10
2023-04-10T08:42:32.566Z,61.28
2023-04-10T08:45:01.954Z,60.65
2023-04-10T08:47:36.979Z,60.27
2023-04-10T08:50:08.283Z,59.90
2023-04-10T08:52:39.186Z,59.46
2023-04-10T08:55:10.479Z,59.58
2023-04-10T08:57:42.881Z,59.55
2023-04-10T09:00:23.086Z,59.90
2023-04-10T09:02:58.017Z,59.13
2023-04-10T09:05:28.361Z,58.27
2023-04-10T09:07:56.296Z,57.87
2023-04-10T09:10:24.359Z,57.69
2023-04-10T09:12:53.610Z,57.15
2023-04-10T09:15:21.578Z,58.44
2023-04-10T09:18:00.226Z,56.75
2023-04-10T09:20:31.974Z,58.87
2023-04-10T09:23:00.030Z,58.33
2023-04-10T09:25:33.186Z,57.52
2023-04-10T09:28:04.517Z,56.72
2023-04-10T09:30:37.465Z,56.72
2023-04-10T09:33:22.556Z,56.94
2023-04-10T09:35:51.099Z,57.77
2023-04-10T09:38:20.685Z,56.34
2023-04-10T09:40:49.665Z,55.37
2023-04-10T09:43:24.059Z,55.50
2023-04-10T09:45:53.065Z,55.23
2023-04-10T09:48:21.493Z,54.94
2023-04-10T09:50:49.504Z,54.03
2023-04-10T09:53:20.058Z,55.01
2023-04-10T09:55:49.593Z,56.16
2023-04-10T09:58:19.044Z,55.07
2023-04-10T10:00:49.880Z,54.70
2023-04-10T10:03:19.070Z,53.69
2023-04-10T10:05:49.178Z,54.25
2023-04-10T10:08:17.745Z,54.28
2023-04-10T10:10:49.009Z,54.91
2023-04-10T10:13:21.625Z,55.21
2023-04-10T10:15:59.347Z,56.72
2023-04-10T10:18:40.341Z,55.21
2023-04-10T10:21:10.054Z,55.23
2023-04-10T10:23:39.062Z,54.36
2023-04-10T10:26:07.808Z,53.62
2023-04-10T10:28:37.695Z,55.26
2023-04-10T10:31:08.182Z,52.92
2023-04-10T10:33:37.677Z,53.45
2023-04-10T10:36:06.659Z,54.17
2023-04-10T10:38:35.528Z,55.32
2023-04-10T10:41:10.606Z,55.33
2023-04-10T10:43:51.851Z,54.94
2023-04-10T10:46:30.980Z,54.04
2023-04-10T10:48:59.209Z,55.16
2023-04-10T10:51:45.607Z,53.87
2023-04-10T10:54:29.875Z,53.06
2023-04-10T10:56:57.931Z,54.03
2023-04-10T10:59:57.749Z,51.46
2023-04-10T11:02:27.332Z,52.11
2023-04-10T11:04:55.555Z,51.17
2023-04-10T11:07:23.486Z,51.53
2023-04-10T11:09:52.981Z,50.17
2023-04-10T11:12:23.041Z,50.51
2023-04-10T11:15:01.381Z,51.11
2023-04-10T11:17:51.382Z,50.22
2023-04-10T11:20:21.972Z,49.81
2023-04-10T11:23:10.443Z,50.41
2023-04-10T11:25:49.462Z,49.15
2023-04-10T11:28:35.788Z,48.87
2023-04-10T11:31:19.341Z,48.37
2023-04-10T11:33:49.850Z,50.26
2023-04-10T11:36:18.713Z,50.56
2023-04-10T11:38:57.280Z,48.25
2023-04-10T11:41:30.645Z,48.52
2023-04-10T11:43:59.451Z,48.29
2023-04-10T11:46:27.638Z,48.30
2023-04-10T11:48:59.792Z,48.54
2023-04-10T11:51:28.451Z,47.16
2023-04-10T11:54:07.685Z,49.57
2023-04-10T11:56:36.383Z,47.46
2023-04-10T11:59:07.624Z,47.67
2023-04-10T12:01:35.840Z,46.17
2023-04-10T12:04:07.984Z,46.07
2023-04-10T12:06:36.449Z,46.52
2023-04-10T12:09:14.482Z,45.56
2023-04-10T12:11:50.536Z,43.71
2023-04-10T12:14:18.643Z,45.62
2023-04-10T12:16:47.254Z,44.02
2023-04-10T12:19:18.137Z,44.77
2023-04-10T12:21:46.944Z,43.96
2023-04-10T12:24:35.042Z,43.63
2023-04-10T12:27:02.959Z,45.63
2023-04-10T12:29:31.104Z,45.68
2023-04-10T12:31:59.092Z,44.21
2023-04-10T12:34:28.430Z,43.75
2023-04-10T12:36:56.396Z,43.36
2023-04-10T12:39:26.925Z,43.89
2023-04-10T12:41:54.860Z,43.18
2023-04-10T12:44:22.986Z,41.47
2023-04-10T12:46:51.038Z,41.81
2023-04-10T12:49:19.642Z,41.80
2023-04-10T12:51:50.288Z,42.61
2023-04-10T12:54:32.082Z,41.95
2023-04-10T12:57:00.553Z,42.14
2023-04-10T12:59:29.213Z,42.42
2023-04-10T13:01:57.398Z,41.24
2023-04-10T13:04:25.724Z,40.95
2023-04-10T13:06:55.157Z,41.39
2023-04-10T13:09:23.091Z,40.43
2023-04-10T13:11:52.680Z,40.25
2023-04-10T13:14:20.796Z,39.97
2023-04-10T13:16:48.799Z,40.69
2023-04-10T13:19:16.895Z,40.60
2023-04-10T13:21:44.990Z,40.86
2023-04-10T13:24:16.505Z,41.46
2023-04-10T13:26:44.732Z,40.64
2023-04-10T13:29:12.650Z,37.70
2023-04-10T13:31:40.609Z,37.16
2023-04-10T13:34:08.569Z,36.20
2023-04-10T13:36:36.552Z,34.77
2023-04-10T13:39:04.660Z,33.40
2023-04-10T13:41:34.084Z,33.71
2023-04-10T13:44:02.046Z,33.76
2023-04-10T13:46:30.071Z,34.33
2023-04-10T13:48:58.333Z,37.81
2023-04-10T13:51:26.608Z,37.50
2023-04-10T13:53:54.529Z,36.53
2023-04-10T13:56:22.452Z,37.22
2023-04-10T13:58:51.833Z,37.23
2023-04-10T14:01:19.877Z,35.25
2023-04-10T14:03:47.990Z,35.42
2023-04-10T14:06:15.996Z,35.34
2023-04-10T14:08:43.959Z,35.38
2023-04-10T14:11:11.842Z,34.20
2023-04-10T14:13:39.750Z,35.18
2023-04-10T14:16:09.881Z,35.36
2023-04-10T14:18:37.977Z,34.66
2023-04-10T14:21:06.201Z,34.69
2023-04-10T14:23:34.073Z,33.65
2023-04-10T14:26:02.025Z,33.70
2023-04-10T14:28:30.025Z,33.35
2023-04-10T14:30:57.972Z,33.00
2023-04-10T14:33:27.362Z,34.31
2023-04-10T14:35:55.737Z,33.80
2023-04-10T14:38:23.754Z,34.33
2023-04-10T14:40:51.922Z,33.18
2023-04-10T14:43:19.810Z,33.39
2023-04-10T14:45:47.722Z,34.09
2023-04-10T14:48:16.042Z,33.67
2023-04-10T14:50:45.384Z,33.12
2023-04-10T14:53:13.284Z,34.09
2023-04-10T14:55:41.177Z,34.15
2023-04-10T14:58:11.158Z,34.05
2023-04-10T15:00:39.116Z,34.46
2023-04-10T15:03:08.717Z,34.34
2023-04-10T15:05:36.782Z,34.83
2023-04-10T15:08:06.171Z,34.93
2023-04-10T15:10:34.134Z,35.55
2023-04-10T15:13:02.069Z,35.62
2023-04-10T15:15:29.954Z,35.57
2023-04-10T15:17:57.942Z,35.33
2023-04-10T15:20:25.827Z,35.01
2023-04-10T15:22:53.728Z,35.88
2023-04-10T15:25:23.012Z,36.17
2023-04-10T15:27:50.947Z,37.64
2023-04-10T15:30:19.399Z,37.04
2023-04-10T15:32:47.376Z,37.00
2023-04-10T15:35:15.271Z,36.79
2023-04-10T15:37:43.194Z,37.74
2023-04-10T15:40:11.692Z,37.21
2023-04-10T15:42:40.960Z,36.68
2023-04-10T15:45:09.073Z,37.54
2023-04-10T15:47:37.028Z,37.91
2023-04-10T15:50:05.749Z,37.62
2023-04-10T15:52:33.902Z,38.08
2023-04-10T15:55:01.825Z,38.37
2023-04-10T15:57:29.794Z,38.18
2023-04-10T16:00:00.671Z,38.58
2023-04-10T16:02:28.912Z,37.91
2023-04-10T16:04:57.216Z,38.56
2023-04-10T16:07:25.328Z,40.10
2023-04-10T16:09:55.139Z,39.89
2023-04-10T16:12:23.118Z,39.50
2023-04-10T16:14:51.005Z,40.36
2023-04-10T16:17:20.337Z,40.96
2023-04-10T16:19:48.246Z,41.28
2023-04-10T16:22:16.154Z,40.99
2023-04-10T16:24:44.028Z,40.28
2023-04-10T16:27:12.101Z,41.34
2023-04-10T16:29:40.313Z,42.03
2023-04-10T16:32:08.248Z,40.90
2023-04-10T16:34:37.560Z,41.06
2023-04-10T16:37:05.730Z,41.31
2023-04-10T16:39:33.596Z,40.83
2023-04-10T16:42:03.451Z,40.54
2023-04-10T16:44:31.721Z,40.96
2023-04-10T16:46:59.878Z,42.70
2023-04-10T16:49:27.802Z,42.09
2023-04-10T16:51:57.077Z,41.78
2023-04-10T16:54:25.009Z,41.56
2023-04-10T16:56:52.973Z,42.14
2023-04-10T16:59:20.949Z,42.28
2023-04-10T17:01:48.928Z,42.50
2023-04-10T17:04:19.036Z,42.76
2023-04-10T17:06:47.022Z,42.95
2023-04-10T17:09:16.605Z,43.36
2023-04-10T17:11:44.755Z,42.58
2023-04-10T17:14:13.424Z,43.56
2023-04-10T17:16:41.524Z,43.00
2023-04-10T17:19:09.496Z,43.41
2023-04-10T17:21:37.405Z,43.69
2023-04-10T17:24:05.491Z,43.83
2023-04-10T17:26:34.859Z,43.90
2023-04-10T17:29:02.850Z,43.84
2023-04-10T17:31:31.401Z,43.47
2023-04-10T17:33:59.416Z,43.40
2023-04-10T17:36:28.029Z,43.24
2023-04-10T17:38:56.440Z,43.15
2023-04-10T17:41:24.506Z,43.19
2023-04-10T17:43:53.835Z,43.74
2023-04-10T17:46:22.438Z,43.38
2023-04-10T17:48:50.392Z,43.49
2023-04-10T17:51:18.323Z,43.02
2023-04-10T17:53:46.776Z,43.74
2023-04-10T17:56:20.856Z,44.44
2023-04-10T17:58:48.852Z,44.61
2023-04-10T18:01:24.196Z,45.28
2023-04-10T18:03:52.212Z,46.03
2023-04-10T18:06:20.342Z,46.75
2023-04-10T18:08:48.266Z,47.21
2023-04-10T18:11:16.410Z,46.97
2023-04-10T18:13:44.438Z,47.11
2023-04-10T18:16:12.398Z,46.53
2023-04-10T18:18:42.571Z,46.93
2023-04-10T18:21:11.255Z,47.18
2023-04-10T18:23:40.131Z,47.65
2023-04-10T18:26:08.503Z,48.31
2023-04-10T18:28:37.858Z,48.45
2023-04-10T18:31:06.511Z,47.81
2023-04-10T18:33:34.590Z,47.54
2023-04-10T18:36:03.964Z,47.66
2023-04-10T18:38:31.980Z,47.66
2023-04-10T18:40:59.902Z,48.28
2023-04-10T18:43:28.437Z,48.00
2023-04-10T18:45:56.660Z,48.31
2023-04-10T18:48:24.573Z,47.61
2023-04-10T18:50:53.699Z,48.30
2023-04-10T18:53:23.535Z,47.70
2023-04-10T18:55:52.572Z,47.66
2023-04-10T18:58:21.464Z,47.07
2023-04-10T19:00:49.804Z,47.42
2023-04-10T19:03:17.897Z,47.50
2023-04-10T19:05:46.002Z,47.48
2023-04-10T19:08:14.665Z,47.60
2023-04-10T19:10:44.332Z,48.44
2023-04-10T19:13:13.277Z,48.35
2023-04-10T19:15:43.041Z,48.88
2023-04-10T19:18:13.029Z,48.45
2023-04-10T19:20:52.691Z,48.82
2023-04-10T19:23:21.564Z,48.69
2023-04-10T19:25:54.339Z,48.99
2023-04-10T19:28:24.012Z,49.42
2023-04-10T19:30:52.052Z,49.39
2023-04-10T19:33:20.456Z,49.06
2023-04-10T19:35:48.371Z,48.82
2023-04-10T19:38:16.371Z,48.92
2023-04-10T19:40:44.602Z,48.95
2023-04-10T19:43:14.149Z,48.98
2023-04-10T19:45:42.208Z,49.31
2023-04-10T19:48:10.876Z,48.95
2023-04-10T19:50:39.009Z,48.54
2023-04-10T19:53:07.198Z,48.51
2023-04-10T19:55:35.420Z,48.51
2023-04-10T19:58:03.315Z,48.69
2023-04-10T20:00:32.608Z,48.19
2023-04-10T20:03:00.778Z,48.17
2023-04-10T20:05:28.981Z,47.83
2023-04-10T20:07:56.914Z,47.72
2023-04-10T20:10:25.011Z,46.93
2023-04-10T20:12:52.924Z,46.92
2023-04-10T20:15:21.368Z,46.43
2023-04-10T20:17:50.704Z,46.58
2023-04-10T20:20:18.675Z,46.86
2023-04-10T20:22:46.650Z,46.62
2023-04-10T20:25:14.525Z,46.94
2023-04-10T20:27:42.409Z,46.67
2023-04-10T20:30:11.009Z,47.11
2023-04-10T20:32:39.009Z,46.83
2023-04-10T20:35:09.649Z,46.66
2023-04-10T20:37:37.581Z,46.79
2023-04-10T20:40:06.500Z,46.13
2023-04-10T20:42:34.513Z,46.36
2023-04-10T20:45:02.482Z,46.17
2023-04-10T20:47:30.584Z,46.39
2023-04-10T20:49:58.543Z,47.15
2023-04-10T20:52:27.863Z,46.50
2023-04-10T20:54:55.919Z,46.31
2023-04-10T20:57:23.879Z,47.14
2023-04-10T20:59:51.793Z,46.51
2023-04-10T21:02:19.870Z,46.07
2023-04-10T21:04:48.044Z,46.64
2023-04-10T21:07:15.925Z,46.16
2023-04-10T21:09:45.759Z,46.55
2023-04-10T21:12:13.688Z,46.84
2023-04-10T21:14:41.601Z,46.39
2023-04-10T21:17:09.527Z,46.89
2023-04-10T21:19:37.465Z,47.61
2023-04-10T21:22:05.453Z,47.88
2023-04-10T21:24:33.416Z,48.69
2023-04-10T21:27:02.836Z,49.49
2023-04-10T21:29:30.943Z,49.75
2023-04-10T21:31:58.933Z,49.92
2023-04-10T21:34:26.902Z,49.27
2023-04-10T21:36:55.546Z,49.19
2023-04-10T21:39:23.610Z,49.17
2023-04-10T21:41:51.594Z,48.92
2023-04-10T21:44:21.086Z,48.32
2023-04-10T21:46:49.024Z,49.33
2023-04-10T21:49:16.938Z,48.17
2023-04-10T21:51:44.864Z,48.22
2023-04-10T21:54:12.788Z,47.87
2023-04-10T21:56:41.456Z,47.28
2023-04-10T21:59:09.365Z,47.09
2023-04-10T22:01:41.560Z,46.52
2023-04-10T22:04:09.711Z,46.58
2023-04-10T22:06:37.713Z,47.32
2023-04-10T22:09:05.763Z,47.33
2023-04-10T22:11:34.396Z,47.29
2023-04-10T22:14:12.710Z,47.22
2023-04-10T22:16:45.781Z,47.93
2023-04-10T22:19:13.696Z,47.69
2023-04-10T22:21:41.718Z,47.76
2023-04-10T22:24:09.824Z,48.59
2023-04-10T22:26:37.745Z,48.68
2023-04-10T22:29:05.688Z,48.48
2023-04-10T22:31:33.595Z,48.12
2023-04-10T22:34:02.898Z,47.79
2023-04-10T22:36:33.571Z,48.11
2023-04-10T22:39:01.625Z,47.70
2023-04-10T22:41:30.532Z,47.88
2023-04-10T22:43:58.600Z,47.74
2023-04-10T22:46:26.863Z,48.29
2023-04-10T22:48:54.905Z,48.73
2023-04-10T22:51:24.376Z,48.43
2023-04-10T22:53:52.267Z,48.43
2023-04-10T22:56:23.284Z,48.31
2023-04-10T22:58:51.359Z,48.17
2023-04-10T23:01:19.330Z,47.98
2023-04-10T23:03:47.320Z,47.84
2023-04-10T23:06:15.999Z,47.90
2023-04-10T23:08:45.319Z,47.47
2023-04-10T23:11:13.237Z,47.80
2023-04-10T23:13:42.084Z,47.67
2023-04-10T23:16:11.206Z,47.82
2023-04-10T23:18:39.244Z,47.58
2023-04-10T23:21:08.278Z,47.37
2023-04-10T23:23:36.489Z,48.19
2023-04-10T23:26:06.120Z,48.25
2023-04-10T23:28:34.062Z,47.77
2023-04-10T23:31:01.963Z,48.07
2023-04-10T23:33:29.996Z,47.84
2023-04-10T23:35:57.868Z,47.94
2023-04-10T23:38:25.784Z,47.46
2023-04-10T23:40:54.354Z,47.48
2023-04-10T23:43:23.842Z,47.65
2023-04-10T23:45:51.741Z,47.82
2023-04-10T23:48:19.698Z,47.27
2023-04-10T23:50:47.598Z,47.17
2023-04-10T23:53:15.566Z,47.49
2023-04-10T23:55:44.045Z,47.59
2023-04-10T23:58:11.985Z,47.62
